Jinotega, Nicaragua
Current Conditions -  °F | °C
As of 7:00 AM on Friday 28 Nov 2014 (Local Time) from MNMG Reporting Station
Few Clouds Few Clouds  
Wind Chill: 75°   Ceiling: Unl
Heat Index: 75°   Visibility: 6mi
Dew Point: 70°   Wind: 5mph
Humidity: 83%   Direction: 90°E
Pressure: 29.85"   Gusts: NA
Location:  13.1°N, 86°W
Report Text: MNMG 281300Z 09004KT 9999 FEW021 24/21 Q1011 A2988 NOSIG
Loading
Personal Weather Stations






























Interactive Weather Map New forecast layout! Learn more

10-Day Weather Forecast

Advertisements
Track Severe Weather on mobile